Terminal Aerodrome Forecast
Issued by NWS

Home | Current Version | Previous Version | Text Only | Print | Product List | Glossary On
Versions: 1 2 3 4 5 6 7 8 9 10 11 12 13 14 15 16
641
FTUS42 KMLB 201122
TAFISM
TAF
KISM 201122Z 2012/2112 VRB03KT P6SM FEW030 BKN250
     FM201400 09004KT P6SM FEW030 BKN250
     FM201900 11009KT P6SM VCTS SCT050CB BKN200
     FM210100 10004KT P6SM SCT040 SCT150 OVC200=

USA.gov is the U.S. government's official web portal to all federal, state and local government web resources and services.